Danville Regional Airport Danville US
ICAO: KDAN
IATA: DAN
Category: Medium
Scheduled Services: No

Elevation: 571 ft
TransAlt. 18000 ft.

Airport Communications:
ASOS:128.125
WASHINGTON CNTR:124.05
LEESBURG RDO:122.2
CTAF/UNICOM:123.05

KDAN Zoom In..

If you have problems with the map follow the link
https://www.worldairports.se/pages/airport.php?
ICAO=KDAN

Runways:

(A) RW 02 length 6500 ft width 150 ft
ILS 110.70 / hdg 25

(B) RW 13 length 4020 ft width 100 ft
---- / hdg 134

(C) RW 20 length 6500 ft width 150 ft
---- / hdg 205

(D) RW 31 length 4020 ft width 100 ft
---- / hdg 314

Location; KDAN
Day. 14 / Time. 14.53 Zulu
* Altimeter: 29.52
* Temperature: 07° c. 44.6°f.
* Wind from: 250° Speed 06 kn.
Dewpoint: 07° c.
Visibility: 10 Statute Miles.
Clouds: Overcast 300 ft.

KDAN 141453Z AUTO 25006KT 10SM OVC003 07/07 A2952 RMK AO2 RAE1354B22E31 SLP994 P0000 60006 T00720067 55003


Wind From 250°
Speed 06 kn.

 
 
jpsmedia worldairports.se 2019   terms of use